Eldred, New York
Current Conditions -  °F | °C
As of 6:35 AM on Thursday 27 Nov 2014 (Local Time) from KMSV Reporting Station
Overcast Overcast  
Wind Chill: 22°   Ceiling: 5000
Heat Index: 28°   Visibility: 10mi
Dew Point: 27°   Wind: 6mph
Humidity: 93%   Direction: 300°WNW
Pressure: 29.91"   Gusts: NA
Location:  41.53°N, 74.88°W
Report Text: KMSV 271135Z AUTO 30005KT 10SM OVC050 M02/M03 A2991 RMK AO1
Loading
Personal Weather Stations






























Interactive Weather Map New forecast layout! Learn more

10-Day Weather Forecast

Advertisements
Track Severe Weather on mobile